Time;durP1;ratioP1;P1;durP2;ratioP2;P2;SDS_P1;SDS_P2;PMS_P1;PMS_P2;Temp;Humidity;BMP_temperature;BMP_pressure;BME280_temperature;BME280_humidity;BME280_pressure;Samples;Min_cycle;Max_cycle;Signal;HPM_P1;HPM_P2
2022/03/02 00:00:49;;;;;;;2.80;2.70;;;;;;;3.14;47.63;102113.22;6099172;23;20420;-70
2022/03/02 00:03:19;;;;;;;2.83;2.72;;;;;;;3.52;47.15;102179.00;6078139;23;20031;-69
2022/03/02 00:05:46;;;;;;;2.97;2.88;;;;;;;3.50;46.99;102178.16;6068001;23;20093;-70
2022/03/02 00:08:12;;;;;;;2.75;2.65;;;;;;;-0.05;47.40;101590.31;6054539;23;20272;-70
2022/03/02 00:10:39;;;;;;;3.90;3.70;;;;;;;3.43;47.78;102197.16;6071033;23;20014;-70
2022/03/02 00:13:06;;;;;;;3.20;3.10;;;;;;;3.23;47.76;102140.03;6086942;23;20041;-70
2022/03/02 00:15:32;;;;;;;4.35;4.15;;;;;;;3.37;47.39;102170.34;6077797;23;20395;-70
2022/03/02 00:17:59;;;;;;;2.88;2.78;;;;;;;2.34;47.81;102004.19;6085798;23;20068;-70
2022/03/02 00:20:25;;;;;;;4.13;3.92;;;;;;;1.66;47.31;101886.56;6075777;23;20056;-70
2022/03/02 00:23:24;;;;;;;8.95;8.55;;;;;;;2.73;48.25;102080.31;6046647;23;20076;-69
2022/03/02 00:26:20;;;;;;;3.10;2.95;;;;;;;3.14;47.74;102179.81;6051169;23;20022;-70
2022/03/02 00:28:47;;;;;;;3.03;2.92;;;;;;;2.38;47.86;102033.56;6103365;23;20085;-70
2022/03/02 00:31:13;;;;;;;2.78;2.67;;;;;;;2.92;48.50;102137.41;6077623;23;20018;-70
2022/03/02 00:33:43;;;;;;;2.90;2.80;;;;;;;3.11;47.88;102165.13;6049433;23;20135;-70
2022/03/02 00:36:10;;;;;;;3.00;2.90;;;;;;;1.75;48.12;101953.91;6077243;23;20014;-70
2022/03/02 00:38:36;;;;;;;2.70;2.60;;;;;;;3.06;48.30;102155.59;6079750;23;20037;-70
2022/03/02 00:41:04;;;;;;;2.80;2.70;;;;;;;2.78;48.94;102151.16;6078809;23;20109;-70
2022/03/02 00:43:30;;;;;;;5.50;5.13;;;;;;;2.37;48.72;102131.16;6079483;23;20011;-69
2022/03/02 00:45:57;;;;;;;3.42;3.33;;;;;;;2.40;49.31;102106.97;6082361;23;20596;-70
2022/03/02 00:48:23;;;;;;;4.15;3.95;;;;;;;2.80;49.39;102170.19;6053909;23;20213;-70
2022/03/02 00:50:50;;;;;;;2.70;2.60;;;;;;;2.75;49.41;102152.91;6076186;23;20604;-70
2022/03/02 00:53:17;;;;;;;3.15;3.03;;;;;;;2.76;49.07;102146.84;6051968;23;20014;-69
2022/03/02 00:55:44;;;;;;;6.78;4.07;;;;;;;2.01;48.50;102014.44;6082169;23;20030;-69
2022/03/02 00:58:11;;;;;;;2.90;2.80;;;;;;;2.45;48.42;102101.81;6040422;23;20015;-69
2022/03/02 01:00:37;;;;;;;3.83;3.65;;;;;;;2.88;48.21;102146.88;6075117;23;20045;-70
2022/03/02 01:03:04;;;;;;;2.80;2.70;;;;;;;2.72;48.26;102114.00;6055311;23;20026;-69
2022/03/02 01:05:31;;;;;;;3.97;3.80;;;;;;;2.01;48.29;102002.34;6100094;23;20102;-70
2022/03/02 01:07:58;;;;;;;2.80;2.70;;;;;;;2.86;48.59;102124.41;6058371;23;20459;-70
2022/03/02 01:10:24;;;;;;;3.88;3.75;;;;;;;2.51;48.73;102073.34;6083439;23;20021;-70
2022/03/02 01:12:51;;;;;;;2.70;2.60;;;;;;;2.81;48.84;102129.59;6058660;23;20071;-70
2022/03/02 01:15:17;;;;;;;2.95;2.85;;;;;;;2.32;49.69;102034.41;6089743;23;20020;-70
2022/03/02 01:17:44;;;;;;;2.90;2.80;;;;;;;2.65;49.43;102112.28;6092085;23;20010;-69
2022/03/02 01:20:12;;;;;;;2.72;2.63;;;;;;;2.60;49.35;102109.63;6071901;23;20232;-70
2022/03/02 01:22:38;;;;;;;4.25;3.80;;;;;;;2.59;48.95;102107.91;6059265;23;20011;-70
2022/03/02 01:25:06;;;;;;;3.33;3.22;;;;;;;2.27;48.98;102058.56;6082719;23;20025;-70
2022/03/02 01:27:33;;;;;;;4.05;3.85;;;;;;;1.47;49.04;101914.09;6077977;23;20024;-69
2022/03/02 01:29:59;;;;;;;3.10;2.90;;;;;;;2.19;49.25;102043.84;6079171;23;20014;-70
2022/03/02 01:32:26;;;;;;;4.97;4.68;;;;;;;2.49;49.07;102116.53;6053507;23;20360;-70
2022/03/02 01:34:52;;;;;;;2.65;2.55;;;;;;;2.42;49.38;102100.06;6087280;23;20044;-70
2022/03/02 01:37:19;;;;;;;3.38;3.28;;;;;;;2.06;50.08;102075.72;6054151;23;20025;-70
2022/03/02 01:39:45;;;;;;;3.10;3.00;;;;;;;1.75;50.07;102017.75;6074144;23;20521;-70
2022/03/02 01:42:12;;;;;;;3.35;3.25;;;;;;;2.19;51.44;102097.38;6049269;23;20033;-69
2022/03/02 01:44:38;;;;;;;2.55;2.45;;;;;;;2.11;52.81;102131.00;6081386;23;20052;-70
2022/03/02 01:47:06;;;;;;;2.88;2.78;;;;;;;1.97;53.08;102105.03;6079908;23;20082;-71
2022/03/02 01:49:33;;;;;;;3.00;2.90;;;;;;;1.49;55.20;102044.31;6084167;23;20237;-70
2022/03/02 01:52:00;;;;;;;2.70;2.60;;;;;;;1.72;56.04;102108.31;6053520;23;20040;-70
2022/03/02 01:54:26;;;;;;;4.10;3.90;;;;;;;1.16;58.71;102038.06;6095781;23;20451;-70
2022/03/02 01:56:54;;;;;;;3.03;2.90;;;;;;;0.88;58.76;102017.97;6056312;23;20030;-69
2022/03/02 01:59:22;;;;;;;3.08;2.97;;;;;;;1.28;60.07;102098.47;6087792;23;20024;-69
2022/03/02 02:01:49;;;;;;;2.97;2.88;;;;;;;0.73;61.14;102019.56;6063559;23;20743;-70
2022/03/02 02:04:16;;;;;;;3.63;3.10;;;;;;;0.62;61.14;102008.25;6079553;23;20052;-70
2022/03/02 02:06:43;;;;;;;3.30;3.20;;;;;;;1.12;60.56;102097.44;6080828;23;20079;-70
2022/03/02 02:09:09;;;;;;;3.40;3.30;;;;;;;1.06;60.97;102092.22;6084910;23;20039;-70
2022/03/02 02:11:36;;;;;;;3.42;3.33;;;;;;;1.03;60.43;102090.50;6055897;23;20120;-69
2022/03/02 02:14:02;;;;;;;2.90;2.80;;;;;;;0.98;61.16;102085.28;6079218;23;20529;-70
2022/03/02 02:16:29;;;;;;;4.22;3.92;;;;;;;0.47;60.90;102000.34;6057871;23;20018;-70
2022/03/02 02:18:56;;;;;;;2.60;2.50;;;;;;;0.78;60.69;102059.25;6088415;23;20502;-70
2022/03/02 02:21:23;;;;;;;3.88;3.70;;;;;;;1.07;60.12;102088.81;6054823;23;20423;-70
2022/03/02 02:23:50;;;;;;;3.25;3.08;;;;;;;1.11;60.39;102086.25;6111121;23;20462;-70
2022/03/02 02:26:19;;;;;;;2.78;2.67;;;;;;;1.18;59.44;102082.88;6060325;23;20018;-70
2022/03/02 02:28:46;;;;;;;2.80;2.70;;;;;;;0.59;58.50;101990.13;6084428;23;20080;-70
2022/03/02 02:31:12;;;;;;;2.60;2.50;;;;;;;-0.59;58.99;101792.75;6061586;23;20034;-70
2022/03/02 02:33:39;;;;;;;2.97;2.88;;;;;;;0.15;58.74;101913.09;6086702;23;20378;-71
2022/03/02 02:36:05;;;;;;;2.78;2.65;;;;;;;1.15;59.31;102082.84;6061748;23;20349;-70
2022/03/02 02:38:32;;;;;;;3.80;3.67;;;;;;;1.23;58.12;102077.75;6099394;23;20048;-69
2022/03/02 02:40:58;;;;;;;2.60;2.50;;;;;;;0.57;57.17;101969.44;6083666;23;20030;-70
2022/03/02 02:43:26;;;;;;;3.00;2.90;;;;;;;1.13;57.56;102053.53;6056044;23;20027;-69
2022/03/02 02:45:53;;;;;;;3.08;2.97;;;;;;;0.45;57.48;101937.50;6084609;23;20014;-69
2022/03/02 02:48:20;;;;;;;3.58;3.47;;;;;;;0.96;57.91;102024.06;6055741;23;20046;-69
2022/03/02 02:50:49;;;;;;;2.78;2.60;;;;;;;1.22;57.98;102068.25;6085177;23;20339;-70
2022/03/02 02:53:16;;;;;;;2.50;2.40;;;;;;;1.27;57.58;102060.53;6059205;23;20170;-69
2022/03/02 02:55:44;;;;;;;2.55;2.45;;;;;;;1.28;56.97;102054.50;6087491;23;20466;-69
2022/03/02 02:58:11;;;;;;;2.55;2.45;;;;;;;1.28;57.08;102057.94;6054138;23;20069;-69
2022/03/02 03:00:42;;;;;;;3.53;3.33;;;;;;;0.74;57.78;101967.03;6087320;23;20038;-69
2022/03/02 03:03:09;;;;;;;2.92;2.72;;;;;;;1.08;56.63;102025.88;6045991;23;20357;-70
2022/03/02 03:05:36;;;;;;;3.05;2.95;;;;;;;1.23;56.80;102049.31;6070631;23;20034;-70
2022/03/02 03:08:09;;;;;;;2.80;2.70;;;;;;;1.19;57.13;102042.38;6087756;23;20033;-71
2022/03/02 03:10:37;;;;;;;2.90;2.72;;;;;;;0.89;57.07;101993.88;6080446;23;20105;-70
2022/03/02 03:13:04;;;;;;;2.60;2.50;;;;;;;0.77;57.26;101972.22;6059427;23;20053;-70
2022/03/02 03:15:31;;;;;;;4.10;3.90;;;;;;;1.17;57.69;102044.09;6102183;23;20818;-69
2022/03/02 03:17:58;;;;;;;2.65;2.55;;;;;;;0.76;57.94;101974.78;6082236;23;20028;-70
2022/03/02 03:20:26;;;;;;;4.25;4.05;;;;;;;1.18;57.84;102045.78;6087891;23;20031;-70
2022/03/02 03:22:56;;;;;;;2.42;2.33;;;;;;;1.17;59.04;102039.75;6058686;23;20055;-69
2022/03/02 03:25:24;;;;;;;4.65;4.45;;;;;;;-0.27;58.69;101799.13;6080656;23;20040;-69
2022/03/02 03:27:51;;;;;;;2.50;2.40;;;;;;;1.28;58.35;102036.41;6060827;23;20030;-70
2022/03/02 03:30:20;;;;;;;3.08;2.95;;;;;;;1.30;58.77;102037.28;6081637;23;20020;-70
2022/03/02 03:32:47;;;;;;;2.50;2.40;;;;;;;1.13;58.56;101996.66;6060345;23;20073;-69
2022/03/02 03:35:15;;;;;;;2.65;2.55;;;;;;;0.98;58.45;101971.56;6086070;23;20002;-70
2022/03/02 03:37:43;;;;;;;3.45;3.35;;;;;;;1.53;58.05;102032.28;6054519;23;20664;-70
2022/03/02 03:40:12;;;;;;;2.97;2.88;;;;;;;1.57;57.96;102027.13;6097964;23;20204;-70
2022/03/02 03:42:40;;;;;;;2.47;2.38;;;;;;;1.58;57.84;102030.56;6044571;23;20018;-70
2022/03/02 03:45:08;;;;;;;2.70;2.60;;;;;;;1.54;58.13;102053.00;6077317;23;20037;-70
2022/03/02 03:47:35;;;;;;;3.78;3.60;;;;;;;1.70;57.54;102029.78;6063891;23;20044;-70
2022/03/02 03:50:02;;;;;;;2.67;2.58;;;;;;;0.92;57.82;101904.31;6098522;23;20476;-70
2022/03/02 03:52:29;;;;;;;4.25;4.05;;;;;;;1.64;58.26;102030.63;6056934;23;20046;-70
2022/03/02 03:54:56;;;;;;;2.90;2.80;;;;;;;1.11;58.16;101932.84;6095879;23;20636;-70
2022/03/02 03:57:23;;;;;;;3.72;3.63;;;;;;;1.50;58.29;102009.81;6096500;23;20024;-70
2022/03/02 03:59:50;;;;;;;2.70;2.60;;;;;;;1.40;58.38;101997.69;6081296;23;20024;-70
2022/03/02 04:02:16;;;;;;;2.97;2.88;;;;;;;1.65;58.22;102023.75;6073837;23;20066;-70
2022/03/02 04:04:43;;;;;;;2.60;2.50;;;;;;;1.42;58.41;102008.06;6100185;23;20093;-70
2022/03/02 04:07:10;;;;;;;2.47;2.38;;;;;;;0.68;59.03;101873.09;6054442;23;20019;-70
2022/03/02 04:09:37;;;;;;;2.80;2.70;;;;;;;1.59;58.42;102021.97;6074372;23;20489;-69
2022/03/02 04:12:04;;;;;;;2.63;2.53;;;;;;;1.55;58.92;102023.66;6056566;23;20102;-69
2022/03/02 04:14:30;;;;;;;4.18;3.97;;;;;;;0.96;59.06;101937.06;6078911;23;20042;-70
2022/03/02 04:16:57;;;;;;;4.03;3.83;;;;;;;1.12;59.37;101965.59;6054889;23;20022;-69
2022/03/02 04:19:23;;;;;;;4.03;3.83;;;;;;;1.16;60.14;101972.53;6077191;23;20007;-70
2022/03/02 04:21:50;;;;;;;2.70;2.60;;;;;;;1.46;59.76;102020.16;6079373;23;20379;-69
2022/03/02 04:24:18;;;;;;;3.05;2.95;;;;;;;0.88;59.91;101923.22;6078238;23;20026;-71
2022/03/02 04:26:44;;;;;;;3.30;3.00;;;;;;;1.24;60.17;101970.00;6068388;23;20126;-70
2022/03/02 04:29:11;;;;;;;3.10;3.00;;;;;;;1.43;60.40;101995.13;6080779;23;20031;-70
2022/03/02 04:31:37;;;;;;;3.08;2.97;;;;;;;1.07;60.85;101944.91;6078841;23;20029;-70
2022/03/02 04:34:04;;;;;;;3.05;2.95;;;;;;;1.29;60.69;101981.25;6051944;23;20042;-70
2022/03/02 04:36:30;;;;;;;4.95;4.65;;;;;;;1.35;60.54;102007.16;6083711;23;20450;-70
2022/03/02 04:38:57;;;;;;;2.80;2.70;;;;;;;0.89;59.84;101914.59;6080250;23;20014;-69
2022/03/02 04:41:24;;;;;;;4.55;4.35;;;;;;;0.61;60.77;101861.84;6080253;23;20018;-70
2022/03/02 04:43:51;;;;;;;2.90;2.80;;;;;;;0.91;60.52;101915.47;6078772;23;20498;-70
2022/03/02 04:46:18;;;;;;;2.72;2.63;;;;;;;1.42;60.40;101992.53;6079071;23;20014;-70
2022/03/02 04:48:44;;;;;;;3.05;2.95;;;;;;;1.41;60.26;101996.84;6086083;23;20316;-70
2022/03/02 04:51:11;;;;;;;2.88;2.78;;;;;;;1.43;60.09;101994.28;6081952;23;20324;-69
2022/03/02 04:53:37;;;;;;;2.70;2.60;;;;;;;0.57;59.85;101853.22;6055651;23;20609;-69
2022/03/02 04:56:04;;;;;;;3.10;3.00;;;;;;;1.41;59.59;101996.84;6080797;23;20025;-70
2022/03/02 04:58:30;;;;;;;5.20;4.90;;;;;;;1.39;60.62;101996.81;6051530;23;20479;-69
2022/03/02 05:00:57;;;;;;;2.72;2.63;;;;;;;0.39;60.70;101827.25;6083897;23;20463;-70
2022/03/02 05:03:24;;;;;;;5.28;5.07;;;;;;;1.33;61.51;101991.63;6040253;23;20086;-69
2022/03/02 05:05:51;;;;;;;3.20;3.10;;;;;;;0.88;61.84;101922.34;6079644;23;20680;-69
2022/03/02 05:08:17;;;;;;;3.78;3.58;;;;;;;0.98;62.13;101932.78;6040880;23;20039;-69
2022/03/02 05:10:44;;;;;;;2.90;2.80;;;;;;;0.91;62.45;101920.66;6080202;23;20050;-69
2022/03/02 05:13:10;;;;;;;2.60;2.50;;;;;;;1.35;61.75;101983.88;6065294;23;20639;-69
2022/03/02 05:15:37;;;;;;;2.60;2.50;;;;;;;1.10;62.02;101950.09;6083925;23;20036;-69
2022/03/02 05:18:04;;;;;;;2.60;2.50;;;;;;;0.89;61.53;101908.59;6079964;23;20231;-70
2022/03/02 05:20:30;;;;;;;4.88;4.68;;;;;;;0.63;61.64;101860.16;6078820;23;20014;-70
2022/03/02 05:22:57;;;;;;;3.05;2.95;;;;;;;1.14;61.54;101946.69;6054632;23;20043;-69
2022/03/02 05:25:26;;;;;;;4.32;3.95;;;;;;;1.23;61.71;101951.03;6080837;23;20018;-69
2022/03/02 05:27:52;;;;;;;3.05;2.95;;;;;;;-0.40;62.12;101691.53;6052560;23;20210;-69
2022/03/02 05:30:20;;;;;;;3.15;3.05;;;;;;;1.29;62.16;101956.25;6078432;23;20088;-70
2022/03/02 05:32:47;;;;;;;2.60;2.50;;;;;;;1.02;62.26;101922.44;6061352;23;20014;-69
2022/03/02 05:35:13;;;;;;;2.60;2.50;;;;;;;1.35;62.86;101982.16;6081925;23;20025;-69
2022/03/02 05:37:42;;;;;;;2.60;2.50;;;;;;;1.31;62.77;101984.72;6053402;23;20011;-69
2022/03/02 05:40:13;;;;;;;2.80;2.70;;;;;;;1.00;63.18;101932.75;6078181;23;20029;-69
2022/03/02 05:42:39;;;;;;;2.90;2.80;;;;;;;1.27;63.33;101975.19;6053317;23;20038;-69
2022/03/02 05:45:07;;;;;;;2.80;2.70;;;;;;;1.06;63.63;101953.50;6086998;23;20022;-69
2022/03/02 05:47:34;;;;;;;4.25;4.05;;;;;;;1.21;64.08;101977.75;6079012;23;20026;-69
2022/03/02 05:50:00;;;;;;;2.63;2.53;;;;;;;0.39;63.98;101845.31;6084820;23;20085;-69
2022/03/02 05:52:27;;;;;;;4.13;3.92;;;;;;;1.14;63.67;101989.75;6084401;23;20361;-69
2022/03/02 05:54:53;;;;;;;3.70;3.50;;;;;;;1.09;63.88;101992.31;6081035;23;20025;-69
2022/03/02 05:57:20;;;;;;;3.72;3.63;;;;;;;0.95;63.87;101970.66;6089478;23;20018;-69
2022/03/02 05:59:46;;;;;;;2.80;2.70;;;;;;;1.03;63.68;101988.81;6057774;23;20026;-69
2022/03/02 06:02:12;;;;;;;2.53;2.42;;;;;;;1.00;64.07;101992.22;6099628;23;20434;-69
2022/03/02 06:04:40;;;;;;;2.63;2.53;;;;;;;0.96;63.72;101991.34;6055773;23;20029;-69
2022/03/02 06:07:07;;;;;;;2.80;2.70;;;;;;;0.89;63.72;101984.38;6071357;23;20032;-69
2022/03/02 06:09:38;;;;;;;2.90;2.80;;;;;;;0.18;64.17;101866.63;6081104;23;20010;-69
2022/03/02 06:12:05;;;;;;;2.90;2.80;;;;;;;0.87;64.66;101990.41;6088375;23;20061;-69
2022/03/02 06:14:32;;;;;;;4.18;3.97;;;;;;;0.62;64.22;101945.38;6074832;23;20096;-69
2022/03/02 06:16:59;;;;;;;34.97;3.30;;;;;;;0.42;64.57;101914.19;6089245;23;20085;-69
2022/03/02 06:19:26;;;;;;;4.30;4.10;;;;;;;0.62;64.52;101955.72;6083605;23;20504;-68
2022/03/02 06:21:53;;;;;;;2.65;2.55;;;;;;;0.74;63.98;101971.31;6077694;23;20244;-69
2022/03/02 06:24:19;;;;;;;2.65;2.55;;;;;;;0.86;63.95;101997.25;6088621;23;20155;-69
2022/03/02 06:26:46;;;;;;;2.70;2.60;;;;;;;0.09;63.72;101870.00;6088978;23;20226;-69
2022/03/02 06:29:12;;;;;;;2.70;2.60;;;;;;;0.86;63.57;101996.41;6063730;23;20089;-69
2022/03/02 06:31:40;;;;;;;2.75;2.65;;;;;;;0.85;63.18;101999.88;6091208;23;20025;-69
2022/03/02 06:34:06;;;;;;;2.75;2.65;;;;;;;0.83;63.50;102001.56;6064587;23;20037;-69
2022/03/02 06:36:33;;;;;;;2.50;2.40;;;;;;;-0.31;64.43;101811.97;6087407;23;20424;-69
2022/03/02 06:38:59;;;;;;;2.90;2.80;;;;;;;0.20;65.16;101903.66;6087984;23;20119;-68
2022/03/02 06:41:36;;;;;;;2.55;2.45;;;;;;;0.85;65.42;101995.56;6096080;23;20071;-68
2022/03/02 06:44:05;;;;;;;6.72;3.25;;;;;;;-0.25;64.56;101819.78;6088161;23;20045;-69
2022/03/02 06:46:49;;;;;;;4.35;4.15;;;;;;;0.45;64.00;101904.78;6077821;23;20326;-68
2022/03/02 06:49:26;;;;;;;3.08;2.97;;;;;;;1.14;63.93;101997.50;6048171;23;20010;-69
2022/03/02 06:51:58;;;;;;;2.53;2.42;;;;;;;1.24;63.80;101988.09;6098835;23;20036;-70
2022/03/02 06:54:32;;;;;;;7.63;3.78;;;;;;;0.95;63.38;101930.16;6053640;23;20037;-70
2022/03/02 06:57:01;;;;;;;2.50;2.40;;;;;;;1.16;62.30;101950.16;6073777;23;20020;-67
2022/03/02 06:59:35;;;;;;;3.97;3.80;;;;;;;0.85;62.55;101893.91;6057957;23;20186;-70
2022/03/02 07:02:04;;;;;;;3.05;2.95;;;;;;;1.59;61.90;101990.94;6083160;23;20093;-67
2022/03/02 07:04:39;;;;;;;4.65;4.45;;;;;;;1.55;61.32;101984.00;6051105;23;20349;-68
2022/03/02 07:07:06;;;;;;;2.53;2.42;;;;;;;0.35;61.01;101764.38;6087325;23;20036;-68
2022/03/02 07:09:33;;;;;;;4.05;3.85;;;;;;;1.85;60.96;102009.19;6078167;23;20035;-69
2022/03/02 07:12:01;;;;;;;2.80;2.70;;;;;;;1.74;61.82;101980.63;6086099;23;20040;-70
2022/03/02 07:14:29;;;;;;;4.25;4.05;;;;;;;1.99;62.72;102006.66;6066978;23;20174;-68
2022/03/02 07:16:58;;;;;;;4.32;3.95;;;;;;;2.01;64.21;101997.16;6083579;23;20305;-68
2022/03/02 07:19:25;;;;;;;3.90;3.72;;;;;;;1.70;64.02;101953.00;6056004;23;21338;-68
2022/03/02 07:21:53;;;;;;;2.70;2.60;;;;;;;1.45;64.85;101908.06;6085092;23;20029;-67
2022/03/02 07:24:25;;;;;;;3.10;3.00;;;;;;;1.78;65.41;101953.06;6082002;23;20036;-68
2022/03/02 07:26:57;;;;;;;2.85;2.75;;;;;;;2.07;65.69;102012.72;6078233;23;20053;-69
2022/03/02 07:29:28;;;;;;;4.40;4.20;;;;;;;2.03;65.98;102000.63;6053566;23;20030;-69
2022/03/02 07:31:57;;;;;;;2.92;2.83;;;;;;;1.98;66.06;101989.38;6079981;23;20010;-68
2022/03/02 07:34:26;;;;;;;2.80;2.70;;;;;;;2.25;65.70;102008.50;6049717;23;20027;-69
2022/03/02 07:36:53;;;;;;;3.25;3.13;;;;;;;2.34;64.70;102008.50;6081538;23;20020;-69
2022/03/02 07:39:20;;;;;;;4.20;4.03;;;;;;;2.45;61.58;102012.00;6047789;23;20463;-69
2022/03/02 07:41:46;;;;;;;3.25;3.10;;;;;;;2.55;60.53;102010.28;6082038;23;20018;-68
2022/03/02 07:44:13;;;;;;;3.20;3.10;;;;;;;2.68;59.89;102019.81;6049075;23;20010;-67
2022/03/02 07:46:39;;;;;;;2.80;2.70;;;;;;;2.44;60.87;101952.41;6074957;23;20693;-67
2022/03/02 07:49:06;;;;;;;2.90;2.80;;;;;;;2.70;61.29;101974.03;6062995;23;20018;-68
2022/03/02 07:51:35;;;;;;;4.60;4.40;;;;;;;2.96;61.50;102005.16;6074680;23;20029;-69
2022/03/02 07:54:04;;;;;;;3.05;2.95;;;;;;;3.03;60.76;101995.66;6054031;23;20028;-68
2022/03/02 07:56:32;;;;;;;4.32;4.13;;;;;;;3.03;59.68;101985.28;6076511;23;20486;-68
2022/03/02 07:59:07;;;;;;;3.33;3.22;;;;;;;3.25;58.22;101990.44;6046566;23;20518;-68
2022/03/02 08:01:39;;;;;;;2.90;2.80;;;;;;;3.33;56.10;101992.19;6079306;23;20451;-67
2022/03/02 08:04:09;;;;;;;3.05;2.95;;;;;;;3.15;55.71;101946.38;6050335;23;20097;-68
2022/03/02 08:06:38;;;;;;;4.28;4.07;;;;;;;3.18;56.17;101945.50;6077656;23;20050;-67
2022/03/02 08:09:06;;;;;;;3.20;3.10;;;;;;;3.47;55.61;101981.78;6075900;23;20029;-67
2022/03/02 08:11:35;;;;;;;4.20;4.00;;;;;;;3.49;55.63;101990.41;6054579;23;20124;-67
2022/03/02 08:14:01;;;;;;;2.90;2.80;;;;;;;3.62;55.07;101987.78;6071132;23;20028;-67
2022/03/02 08:16:28;;;;;;;4.93;4.70;;;;;;;3.76;55.02;101986.00;6073673;23;20025;-67
2022/03/02 08:18:57;;;;;;;4.05;3.70;;;;;;;3.90;54.43;101979.03;6080228;23;20098;-67
2022/03/02 08:21:28;;;;;;;4.75;4.55;;;;;;;3.70;53.36;101926.31;6075599;23;20014;-67
2022/03/02 08:23:57;;;;;;;3.17;3.08;;;;;;;4.18;52.23;101986.72;6054952;23;20100;-67
2022/03/02 08:26:25;;;;;;;4.45;4.25;;;;;;;4.12;51.97;101960.75;6075117;23;20501;-67
2022/03/02 08:28:55;;;;;;;3.05;2.95;;;;;;;4.37;52.31;101979.66;6048760;23;21097;-68
2022/03/02 08:31:23;;;;;;;4.07;3.90;;;;;;;3.98;51.86;101893.31;6078710;23;20097;-68
2022/03/02 08:33:51;;;;;;;3.00;2.90;;;;;;;4.61;52.77;101976.09;6047269;23;20103;-68
2022/03/02 08:36:21;;;;;;;4.07;3.88;;;;;;;4.17;52.10;101900.13;6079473;23;20072;-68
2022/03/02 08:38:50;;;;;;;3.47;3.38;;;;;;;4.43;50.96;101912.09;6054114;23;20325;-68
2022/03/02 08:41:19;;;;;;;3.55;3.42;;;;;;;4.96;50.74;101974.94;6069365;23;20026;-68
2022/03/02 08:43:47;;;;;;;3.38;3.28;;;;;;;4.61;50.25;101916.28;6053455;23;20443;-68
2022/03/02 08:46:14;;;;;;;5.32;5.03;;;;;;;5.06;49.68;101963.56;6066848;23;20064;-67
2022/03/02 08:48:47;;;;;;;3.30;3.20;;;;;;;5.24;48.14;101970.34;6046070;23;20419;-68
2022/03/02 08:51:13;;;;;;;3.42;3.33;;;;;;;5.09;47.08;101926.25;6079731;23;20085;-69
2022/03/02 08:53:43;;;;;;;3.45;3.35;;;;;;;5.49;48.12;101962.28;6047367;23;20097;-67
2022/03/02 08:56:10;;;;;;;3.30;3.20;;;;;;;5.40;48.00;101953.69;6083992;23;20026;-67
2022/03/02 08:58:37;;;;;;;3.50;3.40;;;;;;;5.70;45.82;101964.66;6049569;23;20026;-66
2022/03/02 09:01:03;;;;;;;3.53;3.42;;;;;;;5.59;46.30;101924.84;6101453;23;20032;-68
2022/03/02 09:03:34;;;;;;;5.57;5.28;;;;;;;5.58;46.32;101908.38;6078728;23;20514;-68
2022/03/02 09:06:03;;;;;;;3.00;2.90;;;;;;;5.86;45.33;101933.22;6084086;23;20084;-69
2022/03/02 09:08:36;;;;;;;4.10;3.90;;;;;;;5.75;44.51;101894.25;6083079;23;20030;-70
2022/03/02 09:11:02;;;;;;;3.72;3.53;;;;;;;6.02;45.94;101924.34;6077107;23;20037;-70
2022/03/02 09:13:29;;;;;;;4.72;4.53;;;;;;;5.64;45.56;101836.28;6080310;23;20018;-70
2022/03/02 09:15:56;;;;;;;3.40;3.30;;;;;;;6.06;44.56;101881.72;6087568;23;20093;-70
2022/03/02 09:18:23;;;;;;;8.27;4.18;;;;;;;5.80;43.50;101837.78;6052847;23;20324;-69
2022/03/02 09:20:57;;;;;;;3.40;3.30;;;;;;;6.63;41.90;101948.66;6090924;23;20140;-71
2022/03/02 09:23:28;;;;;;;4.40;4.20;;;;;;;6.37;41.54;101887.34;6046755;23;20043;-70
2022/03/02 09:26:05;;;;;;;3.65;3.45;;;;;;;6.85;42.52;101943.09;6085601;23;20020;-71
2022/03/02 09:28:38;;;;;;;4.88;4.68;;;;;;;7.01;42.52;101938.47;6075751;23;20103;-71
2022/03/02 09:31:07;;;;;;;3.70;3.60;;;;;;;6.13;39.42;101763.50;6111484;23;20025;-68
2022/03/02 09:33:35;;;;;;;4.63;4.43;;;;;;;6.84;39.42;101900.50;6107561;23;20068;-70
2022/03/02 09:36:06;;;;;;;3.40;3.30;;;;;;;6.84;41.46;101905.72;6082850;23;20053;-71
2022/03/02 09:38:34;;;;;;;4.75;4.55;;;;;;;6.92;40.48;101869.06;6076871;23;20011;-71
2022/03/02 09:41:17;;;;;;;3.50;3.40;;;;;;;6.57;40.81;101807.91;6085093;23;20046;-70
2022/03/02 09:43:48;;;;;;;3.95;3.70;;;;;;;7.02;40.22;101869.75;6050422;23;20022;-69
2022/03/02 09:46:21;;;;;;;3.88;3.60;;;;;;;6.68;40.41;101769.47;6085947;23;20087;-69
2022/03/02 09:48:49;;;;;;;3.70;3.60;;;;;;;7.71;37.65;101934.53;6053836;23;20043;-71
2022/03/02 09:51:22;;;;;;;3.63;3.50;;;;;;;7.73;38.13;101926.66;6083226;23;20116;-68
2022/03/02 09:53:53;;;;;;;3.60;3.50;;;;;;;7.86;37.42;101924.66;6055169;23;20089;-69
2022/03/02 09:56:22;;;;;;;5.07;4.68;;;;;;;7.97;37.73;101928.75;6085944;23;20029;-70
2022/03/02 09:58:51;;;;;;;3.63;3.53;;;;;;;8.11;37.93;101918.00;6054334;23;20093;-70
2022/03/02 10:01:23;;;;;;;4.38;4.18;;;;;;;8.04;37.26;101876.34;6077161;23;20073;-68
2022/03/02 10:03:51;;;;;;;;;;;;;;;8.45;38.08;101921.63;6078443;23;20026;-71
2022/03/02 10:06:23;;;;;;;5.25;5.05;;;;;;;8.52;37.24;101936.28;6094743;23;19914;-70
2022/03/02 10:08:52;;;;;;;4.93;4.43;;;;;;;8.29;36.06;101890.56;6053635;23;20045;-69
2022/03/02 10:11:21;;;;;;;4.32;4.13;;;;;;;8.36;36.21;101923.53;6075967;23;20458;-71
2022/03/02 10:13:48;;;;;;;4.03;3.83;;;;;;;8.55;36.02;101917.91;6060393;23;20076;-70
2022/03/02 10:16:22;;;;;;;3.60;3.50;;;;;;;8.66;36.21;101901.94;6075214;23;20478;-71
2022/03/02 10:19:12;;;;;;;3.95;3.75;;;;;;;8.77;35.61;101903.38;6063845;23;20068;-70
2022/03/02 10:21:40;;;;;;;4.25;4.05;;;;;;;8.37;33.84;101831.09;6080789;23;20599;-70
2022/03/02 10:24:13;;;;;;;3.95;3.72;;;;;;;8.70;33.99;101865.19;6079727;23;20336;-71
2022/03/02 10:26:50;;;;;;;4.18;3.97;;;;;;;8.69;33.15;101901.88;6054394;23;20561;-70
2022/03/02 10:29:19;;;;;;;3.80;3.60;;;;;;;9.05;34.82;101931.47;6077702;23;20273;-70
2022/03/02 10:32:05;;;;;;;4.00;3.80;;;;;;;8.34;33.63;101807.63;6082270;23;20037;-71
2022/03/02 10:34:37;;;;;;;5.03;4.82;;;;;;;8.99;33.66;101887.97;6072740;23;20514;-71
2022/03/02 10:37:04;;;;;;;3.67;3.55;;;;;;;9.41;33.18;101926.16;6079876;23;20087;-71
2022/03/02 10:40:06;;;;;;;5.00;4.80;;;;;;;9.33;32.78;101928.97;6077937;23;20038;-70
2022/03/02 10:42:36;;;;;;;4.90;4.70;;;;;;;9.30;33.83;101873.19;6052201;23;20049;-70
2022/03/02 10:45:18;;;;;;;4.38;4.18;;;;;;;9.54;33.70;101922.31;6084547;23;20370;-70
2022/03/02 10:48:17;;;;;;;4.03;3.83;;;;;;;8.34;33.41;101726.56;6084466;23;20014;-70
2022/03/02 10:50:46;;;;;;;4.03;3.83;;;;;;;9.51;33.79;101922.38;6069069;23;20030;-70
2022/03/02 10:53:16;;;;;;;4.50;4.30;;;;;;;9.55;32.65;101929.25;6079228;23;20033;-70
2022/03/02 10:55:44;;;;;;;4.00;3.80;;;;;;;9.32;32.27;101895.84;6058793;23;20365;-70
2022/03/02 10:58:13;;;;;;;3.60;3.50;;;;;;;9.44;32.91;101920.84;6076909;23;20486;-71
2022/03/02 11:00:40;;;;;;;4.18;3.97;;;;;;;8.97;33.15;101863.59;6059520;23;20036;-72
2022/03/02 11:03:07;;;;;;;4.28;4.07;;;;;;;9.46;34.04;101920.78;6080863;23;20505;-70
2022/03/02 11:05:35;;;;;;;5.03;4.82;;;;;;;9.49;32.82;101916.31;6058563;23;20538;-70
2022/03/02 11:08:03;;;;;;;3.80;3.70;;;;;;;9.15;32.17;101864.84;6082706;23;20088;-71
2022/03/02 11:10:37;;;;;;;5.53;5.22;;;;;;;9.27;32.39;101902.97;6055339;23;20050;-71
2022/03/02 11:13:15;;;;;;;4.10;3.90;;;;;;;9.60;34.10;101900.28;6081016;23;20045;-70
2022/03/02 11:15:55;;;;;;;4.00;3.80;;;;;;;9.38;33.76;101897.41;6054848;23;20026;-70
2022/03/02 11:18:48;;;;;;;4.78;4.57;;;;;;;9.21;32.03;101861.22;6084728;23;20478;-71
2022/03/02 11:21:29;;;;;;;5.18;4.88;;;;;;;9.06;33.35;101804.03;6053108;23;20026;-71
2022/03/02 11:24:02;;;;;;;5.15;4.88;;;;;;;8.91;32.95;101800.09;6087144;23;20049;-70
2022/03/02 11:26:34;;;;;;;5.43;5.13;;;;;;;9.68;33.77;101877.34;6081491;23;20049;-71
2022/03/02 11:29:06;;;;;;;4.28;4.07;;;;;;;9.35;32.50;101829.41;6072789;23;20346;-69
2022/03/02 11:31:40;;;;;;;4.82;4.63;;;;;;;9.71;32.55;101858.06;6079610;23;20581;-70
2022/03/02 11:34:28;;;;;;;4.70;4.45;;;;;;;10.11;32.40;101873.41;6071953;23;20459;-69
2022/03/02 11:36:58;;;;;;;4.10;3.90;;;;;;;10.41;31.55;101877.78;6085577;23;20026;-69
2022/03/02 11:39:27;;;;;;;5.15;4.95;;;;;;;10.57;32.12;101866.72;6076285;23;20174;-69
2022/03/02 11:42:00;;;;;;;4.05;3.85;;;;;;;10.33;31.68;101859.66;6079296;23;20034;-70